sensor_id;sensor_type;location;lat;lon;timestamp;P1;durP1;ratioP1;P2;durP2;ratioP2
15799;SDS011;8002;51.196;7.010;2022-07-06T00:02:16;2.88;;;2.30;;
15799;SDS011;8002;51.196;7.010;2022-07-06T00:04:43;2.38;;;2.17;;
15799;SDS011;8002;51.196;7.010;2022-07-06T00:07:10;3.90;;;2.28;;
15799;SDS011;8002;51.196;7.010;2022-07-06T00:09:36;2.60;;;2.10;;
15799;SDS011;8002;51.196;7.010;2022-07-06T00:12:03;2.53;;;1.50;;
15799;SDS011;8002;51.196;7.010;2022-07-06T00:14:29;4.63;;;2.00;;
15799;SDS011;8002;51.196;7.010;2022-07-06T00:16:55;2.80;;;1.88;;
15799;SDS011;8002;51.196;7.010;2022-07-06T00:19:22;1.67;;;1.42;;
15799;SDS011;8002;51.196;7.010;2022-07-06T00:21:50;2.00;;;1.50;;
15799;SDS011;8002;51.196;7.010;2022-07-06T00:24:16;2.97;;;1.90;;
15799;SDS011;8002;51.196;7.010;2022-07-06T00:26:44;3.17;;;1.83;;
15799;SDS011;8002;51.196;7.010;2022-07-06T00:29:10;3.40;;;1.73;;
15799;SDS011;8002;51.196;7.010;2022-07-06T00:31:36;1.90;;;1.50;;
15799;SDS011;8002;51.196;7.010;2022-07-06T00:34:03;2.70;;;2.03;;
15799;SDS011;8002;51.196;7.010;2022-07-06T00:36:30;3.33;;;1.50;;
15799;SDS011;8002;51.196;7.010;2022-07-06T00:38:57;1.77;;;1.50;;
15799;SDS011;8002;51.196;7.010;2022-07-06T00:41:24;1.95;;;1.60;;
15799;SDS011;8002;51.196;7.010;2022-07-06T00:43:51;1.55;;;1.45;;
15799;SDS011;8002;51.196;7.010;2022-07-06T00:46:18;1.95;;;1.50;;
15799;SDS011;8002;51.196;7.010;2022-07-06T00:48:44;2.60;;;1.85;;
15799;SDS011;8002;51.196;7.010;2022-07-06T00:51:11;2.58;;;1.88;;
15799;SDS011;8002;51.196;7.010;2022-07-06T00:53:38;2.47;;;1.70;;
15799;SDS011;8002;51.196;7.010;2022-07-06T00:56:06;4.57;;;1.92;;
15799;SDS011;8002;51.196;7.010;2022-07-06T00:58:32;2.60;;;1.55;;
15799;SDS011;8002;51.196;7.010;2022-07-06T01:00:59;3.97;;;1.85;;
15799;SDS011;8002;51.196;7.010;2022-07-06T01:03:25;1.92;;;1.50;;
15799;SDS011;8002;51.196;7.010;2022-07-06T01:05:52;3.00;;;1.58;;
15799;SDS011;8002;51.196;7.010;2022-07-06T01:08:18;2.50;;;1.58;;
15799;SDS011;8002;51.196;7.010;2022-07-06T01:10:45;1.85;;;1.60;;
15799;SDS011;8002;51.196;7.010;2022-07-06T01:13:13;2.10;;;1.55;;
15799;SDS011;8002;51.196;7.010;2022-07-06T01:15:39;2.50;;;1.60;;
15799;SDS011;8002;51.196;7.010;2022-07-06T01:18:06;1.88;;;1.70;;
15799;SDS011;8002;51.196;7.010;2022-07-06T01:20:36;2.08;;;1.40;;
15799;SDS011;8002;51.196;7.010;2022-07-06T01:23:03;2.63;;;1.73;;
15799;SDS011;8002;51.196;7.010;2022-07-06T01:25:29;2.23;;;1.63;;
15799;SDS011;8002;51.196;7.010;2022-07-06T01:27:56;2.38;;;1.58;;
15799;SDS011;8002;51.196;7.010;2022-07-06T01:30:22;1.77;;;1.50;;
15799;SDS011;8002;51.196;7.010;2022-07-06T01:32:50;2.95;;;1.70;;
15799;SDS011;8002;51.196;7.010;2022-07-06T01:35:16;1.70;;;1.40;;
15799;SDS011;8002;51.196;7.010;2022-07-06T01:37:44;1.67;;;1.50;;
15799;SDS011;8002;51.196;7.010;2022-07-06T01:40:11;1.77;;;1.45;;
15799;SDS011;8002;51.196;7.010;2022-07-06T01:42:38;1.77;;;1.40;;
15799;SDS011;8002;51.196;7.010;2022-07-06T01:45:05;1.83;;;1.40;;
15799;SDS011;8002;51.196;7.010;2022-07-06T01:47:32;4.67;;;1.60;;
15799;SDS011;8002;51.196;7.010;2022-07-06T01:49:59;3.50;;;1.30;;
15799;SDS011;8002;51.196;7.010;2022-07-06T01:52:25;2.93;;;1.30;;
15799;SDS011;8002;51.196;7.010;2022-07-06T01:54:53;1.67;;;1.30;;
15799;SDS011;8002;51.196;7.010;2022-07-06T01:57:19;2.43;;;1.60;;
15799;SDS011;8002;51.196;7.010;2022-07-06T01:59:46;2.40;;;1.50;;
15799;SDS011;8002;51.196;7.010;2022-07-06T02:02:12;2.17;;;1.03;;
15799;SDS011;8002;51.196;7.010;2022-07-06T02:04:40;1.67;;;1.53;;
15799;SDS011;8002;51.196;7.010;2022-07-06T02:07:06;2.63;;;1.40;;
15799;SDS011;8002;51.196;7.010;2022-07-06T02:09:33;2.67;;;1.23;;
15799;SDS011;8002;51.196;7.010;2022-07-06T02:12:00;1.30;;;1.20;;
15799;SDS011;8002;51.196;7.010;2022-07-06T02:14:27;1.50;;;1.40;;
15799;SDS011;8002;51.196;7.010;2022-07-06T02:16:53;2.33;;;1.47;;
15799;SDS011;8002;51.196;7.010;2022-07-06T02:19:19;1.35;;;1.25;;
15799;SDS011;8002;51.196;7.010;2022-07-06T02:21:46;2.20;;;1.30;;
15799;SDS011;8002;51.196;7.010;2022-07-06T02:24:12;1.63;;;1.35;;
15799;SDS011;8002;51.196;7.010;2022-07-06T02:26:39;1.57;;;1.43;;
15799;SDS011;8002;51.196;7.010;2022-07-06T02:29:06;3.07;;;1.67;;
15799;SDS011;8002;51.196;7.010;2022-07-06T02:31:33;1.53;;;1.20;;
15799;SDS011;8002;51.196;7.010;2022-07-06T02:33:59;1.87;;;1.20;;
15799;SDS011;8002;51.196;7.010;2022-07-06T02:36:26;1.90;;;1.10;;
15799;SDS011;8002;51.196;7.010;2022-07-06T02:38:52;1.37;;;1.10;;
15799;SDS011;8002;51.196;7.010;2022-07-06T02:41:18;1.37;;;1.10;;
15799;SDS011;8002;51.196;7.010;2022-07-06T02:43:45;1.43;;;1.10;;
15799;SDS011;8002;51.196;7.010;2022-07-06T02:46:12;1.47;;;1.00;;
15799;SDS011;8002;51.196;7.010;2022-07-06T02:48:39;2.38;;;1.35;;
15799;SDS011;8002;51.196;7.010;2022-07-06T02:51:05;0.93;;;0.93;;
15799;SDS011;8002;51.196;7.010;2022-07-06T02:53:32;1.05;;;1.02;;
15799;SDS011;8002;51.196;7.010;2022-07-06T02:55:58;1.33;;;1.20;;
15799;SDS011;8002;51.196;7.010;2022-07-06T02:58:25;0.90;;;0.90;;
15799;SDS011;8002;51.196;7.010;2022-07-06T03:00:51;1.73;;;1.20;;
15799;SDS011;8002;51.196;7.010;2022-07-06T03:03:19;1.17;;;1.05;;
15799;SDS011;8002;51.196;7.010;2022-07-06T03:05:45;1.27;;;1.17;;
15799;SDS011;8002;51.196;7.010;2022-07-06T03:08:13;1.25;;;1.17;;
15799;SDS011;8002;51.196;7.010;2022-07-06T03:10:40;1.40;;;1.30;;
15799;SDS011;8002;51.196;7.010;2022-07-06T03:13:06;1.27;;;1.17;;
15799;SDS011;8002;51.196;7.010;2022-07-06T03:15:33;1.10;;;1.00;;
15799;SDS011;8002;51.196;7.010;2022-07-06T03:17:59;1.40;;;1.30;;
15799;SDS011;8002;51.196;7.010;2022-07-06T03:20:27;1.40;;;1.30;;
15799;SDS011;8002;51.196;7.010;2022-07-06T03:22:53;1.52;;;1.08;;
15799;SDS011;8002;51.196;7.010;2022-07-06T03:25:20;1.35;;;1.25;;
15799;SDS011;8002;51.196;7.010;2022-07-06T03:27:46;1.70;;;1.13;;
15799;SDS011;8002;51.196;7.010;2022-07-06T03:30:13;1.30;;;1.20;;
15799;SDS011;8002;51.196;7.010;2022-07-06T03:32:40;1.30;;;1.20;;
15799;SDS011;8002;51.196;7.010;2022-07-06T03:35:06;2.20;;;1.57;;
15799;SDS011;8002;51.196;7.010;2022-07-06T03:37:34;1.57;;;1.47;;
15799;SDS011;8002;51.196;7.010;2022-07-06T03:40:00;1.38;;;1.27;;
15799;SDS011;8002;51.196;7.010;2022-07-06T03:42:27;1.70;;;1.50;;
15799;SDS011;8002;51.196;7.010;2022-07-06T03:44:53;1.97;;;1.53;;
15799;SDS011;8002;51.196;7.010;2022-07-06T03:47:20;1.60;;;1.40;;
15799;SDS011;8002;51.196;7.010;2022-07-06T03:49:46;1.87;;;1.70;;
15799;SDS011;8002;51.196;7.010;2022-07-06T03:52:12;2.47;;;1.43;;
15799;SDS011;8002;51.196;7.010;2022-07-06T03:54:40;1.90;;;1.40;;
15799;SDS011;8002;51.196;7.010;2022-07-06T03:57:07;1.70;;;1.60;;
15799;SDS011;8002;51.196;7.010;2022-07-06T03:59:34;1.87;;;1.73;;
15799;SDS011;8002;51.196;7.010;2022-07-06T04:02:00;1.98;;;1.77;;
15799;SDS011;8002;51.196;7.010;2022-07-06T04:04:27;2.00;;;1.80;;
15799;SDS011;8002;51.196;7.010;2022-07-06T04:06:53;2.87;;;1.63;;
15799;SDS011;8002;51.196;7.010;2022-07-06T04:09:20;1.90;;;1.70;;
15799;SDS011;8002;51.196;7.010;2022-07-06T04:11:47;2.33;;;1.70;;
15799;SDS011;8002;51.196;7.010;2022-07-06T04:14:14;1.70;;;1.60;;
15799;SDS011;8002;51.196;7.010;2022-07-06T04:16:40;2.10;;;1.70;;
15799;SDS011;8002;51.196;7.010;2022-07-06T04:19:07;2.43;;;1.90;;
15799;SDS011;8002;51.196;7.010;2022-07-06T04:21:33;2.60;;;2.10;;
15799;SDS011;8002;51.196;7.010;2022-07-06T04:24:00;2.77;;;1.70;;
15799;SDS011;8002;51.196;7.010;2022-07-06T04:26:26;1.80;;;1.70;;
15799;SDS011;8002;51.196;7.010;2022-07-06T04:28:54;1.73;;;1.57;;
15799;SDS011;8002;51.196;7.010;2022-07-06T04:31:20;2.83;;;1.77;;
15799;SDS011;8002;51.196;7.010;2022-07-06T04:33:47;1.73;;;1.63;;
15799;SDS011;8002;51.196;7.010;2022-07-06T04:36:13;2.73;;;1.80;;
15799;SDS011;8002;51.196;7.010;2022-07-06T04:38:39;2.35;;;1.88;;
15799;SDS011;8002;51.196;7.010;2022-07-06T04:41:06;1.70;;;1.60;;
15799;SDS011;8002;51.196;7.010;2022-07-06T04:43:33;1.90;;;1.77;;
15799;SDS011;8002;51.196;7.010;2022-07-06T04:46:00;1.95;;;1.75;;
15799;SDS011;8002;51.196;7.010;2022-07-06T04:48:27;2.67;;;1.97;;
15799;SDS011;8002;51.196;7.010;2022-07-06T04:50:53;2.90;;;1.80;;
15799;SDS011;8002;51.196;7.010;2022-07-06T04:53:19;2.20;;;2.03;;
15799;SDS011;8002;51.196;7.010;2022-07-06T04:55:46;2.77;;;2.20;;
15799;SDS011;8002;51.196;7.010;2022-07-06T04:58:13;2.83;;;1.80;;
15799;SDS011;8002;51.196;7.010;2022-07-06T05:00:39;2.47;;;1.90;;
15799;SDS011;8002;51.196;7.010;2022-07-06T05:03:07;3.10;;;2.03;;
15799;SDS011;8002;51.196;7.010;2022-07-06T05:05:34;3.20;;;2.20;;
15799;SDS011;8002;51.196;7.010;2022-07-06T05:08:01;2.85;;;2.00;;
15799;SDS011;8002;51.196;7.010;2022-07-06T05:10:27;2.93;;;2.40;;
15799;SDS011;8002;51.196;7.010;2022-07-06T05:12:54;2.40;;;2.30;;
15799;SDS011;8002;51.196;7.010;2022-07-06T05:15:20;2.60;;;2.37;;
15799;SDS011;8002;51.196;7.010;2022-07-06T05:17:47;4.38;;;2.78;;
15799;SDS011;8002;51.196;7.010;2022-07-06T05:20:14;2.73;;;2.43;;
15799;SDS011;8002;51.196;7.010;2022-07-06T05:22:41;3.83;;;2.00;;
15799;SDS011;8002;51.196;7.010;2022-07-06T05:25:07;3.13;;;2.43;;
15799;SDS011;8002;51.196;7.010;2022-07-06T05:27:34;2.33;;;2.10;;
15799;SDS011;8002;51.196;7.010;2022-07-06T05:30:00;2.30;;;1.63;;
15799;SDS011;8002;51.196;7.010;2022-07-06T05:32:27;2.93;;;2.27;;
15799;SDS011;8002;51.196;7.010;2022-07-06T05:34:53;2.03;;;1.83;;
15799;SDS011;8002;51.196;7.010;2022-07-06T05:37:21;2.40;;;2.20;;
15799;SDS011;8002;51.196;7.010;2022-07-06T05:39:47;2.53;;;2.20;;
15799;SDS011;8002;51.196;7.010;2022-07-06T05:42:15;2.47;;;2.15;;
15799;SDS011;8002;51.196;7.010;2022-07-06T05:44:41;2.53;;;2.33;;
15799;SDS011;8002;51.196;7.010;2022-07-06T05:47:08;2.47;;;2.28;;
15799;SDS011;8002;51.196;7.010;2022-07-06T05:49:52;3.00;;;2.47;;
15799;SDS011;8002;51.196;7.010;2022-07-06T05:52:37;2.60;;;2.17;;
15799;SDS011;8002;51.196;7.010;2022-07-06T05:55:04;3.07;;;2.00;;
15799;SDS011;8002;51.196;7.010;2022-07-06T05:57:31;2.35;;;2.10;;
15799;SDS011;8002;51.196;7.010;2022-07-06T05:59:57;2.10;;;1.90;;
15799;SDS011;8002;51.196;7.010;2022-07-06T06:02:23;2.60;;;2.35;;
15799;SDS011;8002;51.196;7.010;2022-07-06T06:04:50;2.80;;;2.25;;
15799;SDS011;8002;51.196;7.010;2022-07-06T06:07:16;2.78;;;2.42;;
15799;SDS011;8002;51.196;7.010;2022-07-06T06:09:44;2.15;;;2.00;;
15799;SDS011;8002;51.196;7.010;2022-07-06T06:12:11;3.38;;;2.65;;
15799;SDS011;8002;51.196;7.010;2022-07-06T06:14:43;4.07;;;2.23;;
15799;SDS011;8002;51.196;7.010;2022-07-06T06:17:10;2.40;;;2.20;;
15799;SDS011;8002;51.196;7.010;2022-07-06T06:19:36;2.13;;;1.80;;
15799;SDS011;8002;51.196;7.010;2022-07-06T06:22:03;2.83;;;2.50;;
15799;SDS011;8002;51.196;7.010;2022-07-06T06:24:30;3.85;;;2.40;;
15799;SDS011;8002;51.196;7.010;2022-07-06T06:26:58;4.72;;;2.60;;
15799;SDS011;8002;51.196;7.010;2022-07-06T06:29:25;3.15;;;2.08;;
15799;SDS011;8002;51.196;7.010;2022-07-06T06:31:51;4.80;;;2.08;;
15799;SDS011;8002;51.196;7.010;2022-07-06T06:34:18;4.25;;;1.75;;
15799;SDS011;8002;51.196;7.010;2022-07-06T06:36:44;2.75;;;2.20;;
15799;SDS011;8002;51.196;7.010;2022-07-06T06:39:10;4.03;;;1.88;;
15799;SDS011;8002;51.196;7.010;2022-07-06T06:41:37;3.97;;;1.88;;
15799;SDS011;8002;51.196;7.010;2022-07-06T06:44:04;3.00;;;2.00;;
15799;SDS011;8002;51.196;7.010;2022-07-06T06:46:31;2.08;;;1.63;;
15799;SDS011;8002;51.196;7.010;2022-07-06T06:48:57;2.08;;;1.45;;
15799;SDS011;8002;51.196;7.010;2022-07-06T06:51:24;5.82;;;1.70;;
15799;SDS011;8002;51.196;7.010;2022-07-06T06:53:50;2.65;;;1.50;;
15799;SDS011;8002;51.196;7.010;2022-07-06T06:56:16;2.90;;;1.83;;
15799;SDS011;8002;51.196;7.010;2022-07-06T06:58:43;2.05;;;1.40;;
15799;SDS011;8002;51.196;7.010;2022-07-06T07:01:11;1.83;;;1.25;;
15799;SDS011;8002;51.196;7.010;2022-07-06T07:03:37;2.60;;;1.83;;
15799;SDS011;8002;51.196;7.010;2022-07-06T07:06:04;2.30;;;1.80;;
15799;SDS011;8002;51.196;7.010;2022-07-06T07:08:30;3.08;;;2.13;;
15799;SDS011;8002;51.196;7.010;2022-07-06T07:10:56;3.80;;;1.70;;
15799;SDS011;8002;51.196;7.010;2022-07-06T07:13:23;2.08;;;1.33;;
15799;SDS011;8002;51.196;7.010;2022-07-06T07:15:50;5.18;;;1.77;;
15799;SDS011;8002;51.196;7.010;2022-07-06T07:18:18;3.28;;;1.52;;
15799;SDS011;8002;51.196;7.010;2022-07-06T07:20:44;2.28;;;1.60;;
15799;SDS011;8002;51.196;7.010;2022-07-06T07:23:11;3.15;;;1.50;;
15799;SDS011;8002;51.196;7.010;2022-07-06T07:25:37;2.65;;;1.60;;
15799;SDS011;8002;51.196;7.010;2022-07-06T07:28:04;3.25;;;2.13;;
15799;SDS011;8002;51.196;7.010;2022-07-06T07:30:31;2.58;;;1.45;;
15799;SDS011;8002;51.196;7.010;2022-07-06T07:32:57;3.92;;;1.83;;
15799;SDS011;8002;51.196;7.010;2022-07-06T07:35:27;4.28;;;1.80;;
15799;SDS011;8002;51.196;7.010;2022-07-06T07:37:54;2.63;;;1.42;;
15799;SDS011;8002;51.196;7.010;2022-07-06T07:40:20;3.50;;;1.58;;
15799;SDS011;8002;51.196;7.010;2022-07-06T07:42:46;2.83;;;1.35;;
15799;SDS011;8002;51.196;7.010;2022-07-06T07:45:13;1.25;;;1.10;;
15799;SDS011;8002;51.196;7.010;2022-07-06T07:47:39;2.85;;;1.45;;
15799;SDS011;8002;51.196;7.010;2022-07-06T07:50:06;3.85;;;1.20;;
15799;SDS011;8002;51.196;7.010;2022-07-06T07:52:34;1.20;;;1.08;;
15799;SDS011;8002;51.196;7.010;2022-07-06T07:55:00;2.10;;;0.82;;
15799;SDS011;8002;51.196;7.010;2022-07-06T07:57:27;2.13;;;1.00;;
15799;SDS011;8002;51.196;7.010;2022-07-06T07:59:53;1.45;;;0.90;;
15799;SDS011;8002;51.196;7.010;2022-07-06T08:02:20;2.35;;;1.20;;
15799;SDS011;8002;51.196;7.010;2022-07-06T08:04:46;1.75;;;1.35;;
15799;SDS011;8002;51.196;7.010;2022-07-06T08:07:12;2.83;;;1.48;;
15799;SDS011;8002;51.196;7.010;2022-07-06T08:09:40;2.80;;;1.40;;
15799;SDS011;8002;51.196;7.010;2022-07-06T08:12:07;1.75;;;1.00;;
15799;SDS011;8002;51.196;7.010;2022-07-06T08:14:34;2.45;;;1.25;;
15799;SDS011;8002;51.196;7.010;2022-07-06T08:17:02;3.22;;;1.40;;
15799;SDS011;8002;51.196;7.010;2022-07-06T08:19:28;2.15;;;1.00;;
15799;SDS011;8002;51.196;7.010;2022-07-06T08:21:55;1.95;;;0.80;;
15799;SDS011;8002;51.196;7.010;2022-07-06T08:24:22;2.15;;;1.15;;
15799;SDS011;8002;51.196;7.010;2022-07-06T08:26:50;1.58;;;1.15;;
15799;SDS011;8002;51.196;7.010;2022-07-06T08:29:16;1.92;;;0.88;;
15799;SDS011;8002;51.196;7.010;2022-07-06T08:31:42;3.03;;;1.23;;
15799;SDS011;8002;51.196;7.010;2022-07-06T08:34:09;1.27;;;0.75;;
15799;SDS011;8002;51.196;7.010;2022-07-06T08:36:35;1.95;;;1.15;;
15799;SDS011;8002;51.196;7.010;2022-07-06T08:39:02;2.67;;;1.00;;
15799;SDS011;8002;51.196;7.010;2022-07-06T08:41:29;1.63;;;1.25;;
15799;SDS011;8002;51.196;7.010;2022-07-06T08:43:56;1.55;;;0.90;;
15799;SDS011;8002;51.196;7.010;2022-07-06T08:46:23;1.05;;;0.88;;
15799;SDS011;8002;51.196;7.010;2022-07-06T08:48:50;2.95;;;1.00;;
15799;SDS011;8002;51.196;7.010;2022-07-06T08:51:16;1.83;;;1.27;;
15799;SDS011;8002;51.196;7.010;2022-07-06T08:53:43;2.70;;;1.25;;
15799;SDS011;8002;51.196;7.010;2022-07-06T08:56:10;1.80;;;1.33;;
15799;SDS011;8002;51.196;7.010;2022-07-06T08:58:37;1.98;;;0.90;;
15799;SDS011;8002;51.196;7.010;2022-07-06T09:01:07;1.52;;;1.00;;
15799;SDS011;8002;51.196;7.010;2022-07-06T09:03:35;1.30;;;0.80;;
15799;SDS011;8002;51.196;7.010;2022-07-06T09:06:02;2.08;;;0.73;;
15799;SDS011;8002;51.196;7.010;2022-07-06T09:08:28;1.65;;;0.73;;
15799;SDS011;8002;51.196;7.010;2022-07-06T09:10:56;3.25;;;1.08;;
15799;SDS011;8002;51.196;7.010;2022-07-06T09:13:23;1.85;;;0.90;;
15799;SDS011;8002;51.196;7.010;2022-07-06T09:15:49;1.33;;;0.70;;
15799;SDS011;8002;51.196;7.010;2022-07-06T09:18:17;1.00;;;0.50;;
15799;SDS011;8002;51.196;7.010;2022-07-06T09:20:43;0.40;;;0.40;;
15799;SDS011;8002;51.196;7.010;2022-07-06T09:23:10;1.27;;;0.63;;
15799;SDS011;8002;51.196;7.010;2022-07-06T09:25:36;1.08;;;0.55;;
15799;SDS011;8002;51.196;7.010;2022-07-06T09:28:03;0.50;;;0.40;;
15799;SDS011;8002;51.196;7.010;2022-07-06T09:30:30;1.33;;;0.60;;
15799;SDS011;8002;51.196;7.010;2022-07-06T09:32:57;1.40;;;0.80;;
15799;SDS011;8002;51.196;7.010;2022-07-06T09:35:26;0.88;;;0.60;;
15799;SDS011;8002;51.196;7.010;2022-07-06T09:38:00;0.63;;;0.60;;
15799;SDS011;8002;51.196;7.010;2022-07-06T09:40:26;1.00;;;0.70;;
15799;SDS011;8002;51.196;7.010;2022-07-06T09:43:06;0.75;;;0.50;;
15799;SDS011;8002;51.196;7.010;2022-07-06T09:45:33;0.77;;;0.35;;
15799;SDS011;8002;51.196;7.010;2022-07-06T09:48:04;1.42;;;0.68;;
15799;SDS011;8002;51.196;7.010;2022-07-06T09:50:34;1.10;;;0.60;;
15799;SDS011;8002;51.196;7.010;2022-07-06T09:53:04;1.42;;;0.80;;
15799;SDS011;8002;51.196;7.010;2022-07-06T09:55:30;0.85;;;0.60;;
15799;SDS011;8002;51.196;7.010;2022-07-06T09:57:56;1.95;;;0.70;;
15799;SDS011;8002;51.196;7.010;2022-07-06T10:00:23;1.50;;;0.75;;
15799;SDS011;8002;51.196;7.010;2022-07-06T10:02:50;0.70;;;0.70;;
15799;SDS011;8002;51.196;7.010;2022-07-06T10:05:17;1.15;;;0.57;;
15799;SDS011;8002;51.196;7.010;2022-07-06T10:07:45;0.60;;;0.47;;
15799;SDS011;8002;51.196;7.010;2022-07-06T10:10:12;1.23;;;0.75;;
15799;SDS011;8002;51.196;7.010;2022-07-06T10:12:39;1.30;;;0.80;;
15799;SDS011;8002;51.196;7.010;2022-07-06T10:15:07;1.08;;;0.55;;
15799;SDS011;8002;51.196;7.010;2022-07-06T10:17:33;1.27;;;0.80;;
15799;SDS011;8002;51.196;7.010;2022-07-06T10:20:00;2.63;;;0.90;;
15799;SDS011;8002;51.196;7.010;2022-07-06T10:22:27;0.77;;;0.73;;
15799;SDS011;8002;51.196;7.010;2022-07-06T10:24:55;1.23;;;0.80;;
15799;SDS011;8002;51.196;7.010;2022-07-06T10:27:23;1.63;;;0.88;;
15799;SDS011;8002;51.196;7.010;2022-07-06T10:29:50;1.08;;;0.63;;
15799;SDS011;8002;51.196;7.010;2022-07-06T10:32:17;1.10;;;0.65;;
15799;SDS011;8002;51.196;7.010;2022-07-06T10:34:45;0.75;;;0.68;;
15799;SDS011;8002;51.196;7.010;2022-07-06T10:37:20;2.80;;;0.93;;
15799;SDS011;8002;51.196;7.010;2022-07-06T10:39:47;1.05;;;0.70;;
15799;SDS011;8002;51.196;7.010;2022-07-06T10:42:43;1.10;;;0.77;;
15799;SDS011;8002;51.196;7.010;2022-07-06T10:45:11;1.58;;;0.82;;
15799;SDS011;8002;51.196;7.010;2022-07-06T10:47:37;2.35;;;1.17;;
15799;SDS011;8002;51.196;7.010;2022-07-06T10:50:06;1.20;;;1.00;;
15799;SDS011;8002;51.196;7.010;2022-07-06T10:52:48;1.25;;;1.08;;
15799;SDS011;8002;51.196;7.010;2022-07-06T10:55:28;1.88;;;1.70;;
15799;SDS011;8002;51.196;7.010;2022-07-06T10:57:56;2.60;;;1.63;;
15799;SDS011;8002;51.196;7.010;2022-07-06T11:00:22;2.25;;;1.33;;
15799;SDS011;8002;51.196;7.010;2022-07-06T11:02:49;1.20;;;1.10;;
15799;SDS011;8002;51.196;7.010;2022-07-06T11:07:56;1.92;;;1.20;;
15799;SDS011;8002;51.196;7.010;2022-07-06T11:10:26;1.25;;;1.15;;
15799;SDS011;8002;51.196;7.010;2022-07-06T11:12:59;1.70;;;1.30;;
15799;SDS011;8002;51.196;7.010;2022-07-06T11:18:10;1.90;;;1.20;;
15799;SDS011;8002;51.196;7.010;2022-07-06T11:20:37;1.20;;;1.00;;
15799;SDS011;8002;51.196;7.010;2022-07-06T11:23:03;1.08;;;0.93;;
15799;SDS011;8002;51.196;7.010;2022-07-06T11:25:30;0.88;;;0.88;;
15799;SDS011;8002;51.196;7.010;2022-07-06T11:27:56;1.50;;;1.10;;
15799;SDS011;8002;51.196;7.010;2022-07-06T11:30:24;1.90;;;1.13;;
15799;SDS011;8002;51.196;7.010;2022-07-06T11:32:51;0.93;;;0.80;;
15799;SDS011;8002;51.196;7.010;2022-07-06T11:35:20;1.15;;;1.05;;
15799;SDS011;8002;51.196;7.010;2022-07-06T11:37:47;1.00;;;0.90;;
15799;SDS011;8002;51.196;7.010;2022-07-06T11:40:14;1.02;;;0.90;;
15799;SDS011;8002;51.196;7.010;2022-07-06T11:42:52;1.17;;;0.75;;
15799;SDS011;8002;51.196;7.010;2022-07-06T11:45:26;0.80;;;0.77;;
15799;SDS011;8002;51.196;7.010;2022-07-06T11:50:34;3.80;;;1.17;;
15799;SDS011;8002;51.196;7.010;2022-07-06T11:53:00;0.90;;;0.77;;
15799;SDS011;8002;51.196;7.010;2022-07-06T11:55:27;0.75;;;0.73;;
15799;SDS011;8002;51.196;7.010;2022-07-06T11:57:54;1.65;;;0.75;;
15799;SDS011;8002;51.196;7.010;2022-07-06T12:00:22;0.80;;;0.70;;
15799;SDS011;8002;51.196;7.010;2022-07-06T12:02:59;0.90;;;0.73;;
15799;SDS011;8002;51.196;7.010;2022-07-06T12:05:29;1.60;;;0.70;;
15799;SDS011;8002;51.196;7.010;2022-07-06T12:08:03;1.65;;;0.88;;
15799;SDS011;8002;51.196;7.010;2022-07-06T12:10:32;2.50;;;1.00;;
15799;SDS011;8002;51.196;7.010;2022-07-06T12:13:03;1.05;;;0.90;;
15799;SDS011;8002;51.196;7.010;2022-07-06T12:15:30;2.28;;;0.70;;
15799;SDS011;8002;51.196;7.010;2022-07-06T12:17:56;1.25;;;0.90;;
15799;SDS011;8002;51.196;7.010;2022-07-06T12:20:24;1.50;;;0.68;;
15799;SDS011;8002;51.196;7.010;2022-07-06T12:23:00;0.85;;;0.80;;
15799;SDS011;8002;51.196;7.010;2022-07-06T12:25:29;1.58;;;0.88;;
15799;SDS011;8002;51.196;7.010;2022-07-06T12:27:56;0.50;;;0.50;;
15799;SDS011;8002;51.196;7.010;2022-07-06T12:30:23;0.95;;;0.60;;
15799;SDS011;8002;51.196;7.010;2022-07-06T12:35:32;0.98;;;0.60;;
15799;SDS011;8002;51.196;7.010;2022-07-06T12:37:58;1.10;;;0.55;;
15799;SDS011;8002;51.196;7.010;2022-07-06T12:40:25;1.15;;;0.60;;
15799;SDS011;8002;51.196;7.010;2022-07-06T12:42:52;2.28;;;1.35;;
15799;SDS011;8002;51.196;7.010;2022-07-06T12:45:18;0.70;;;0.60;;
15799;SDS011;8002;51.196;7.010;2022-07-06T12:47:56;0.90;;;0.70;;
15799;SDS011;8002;51.196;7.010;2022-07-06T12:50:29;1.67;;;0.50;;
15799;SDS011;8002;51.196;7.010;2022-07-06T12:52:58;1.90;;;0.80;;
15799;SDS011;8002;51.196;7.010;2022-07-06T12:55:25;0.60;;;0.60;;
15799;SDS011;8002;51.196;7.010;2022-07-06T12:57:53;1.48;;;0.70;;
15799;SDS011;8002;51.196;7.010;2022-07-06T13:00:19;0.80;;;0.70;;
15799;SDS011;8002;51.196;7.010;2022-07-06T13:02:47;2.15;;;0.80;;
15799;SDS011;8002;51.196;7.010;2022-07-06T13:05:19;1.92;;;0.88;;
15799;SDS011;8002;51.196;7.010;2022-07-06T13:07:52;1.88;;;0.80;;
15799;SDS011;8002;51.196;7.010;2022-07-06T13:10:20;1.60;;;0.63;;
15799;SDS011;8002;51.196;7.010;2022-07-06T13:12:47;1.92;;;0.82;;
15799;SDS011;8002;51.196;7.010;2022-07-06T13:15:13;1.23;;;0.90;;
15799;SDS011;8002;51.196;7.010;2022-07-06T13:17:40;0.93;;;0.60;;
15799;SDS011;8002;51.196;7.010;2022-07-06T13:20:07;2.72;;;0.70;;
15799;SDS011;8002;51.196;7.010;2022-07-06T13:22:34;1.25;;;0.65;;
15799;SDS011;8002;51.196;7.010;2022-07-06T13:25:00;1.35;;;0.60;;
15799;SDS011;8002;51.196;7.010;2022-07-06T13:27:28;0.60;;;0.60;;
15799;SDS011;8002;51.196;7.010;2022-07-06T13:29:55;1.85;;;0.77;;
15799;SDS011;8002;51.196;7.010;2022-07-06T13:32:21;1.00;;;0.60;;
15799;SDS011;8002;51.196;7.010;2022-07-06T13:34:48;1.33;;;0.75;;
15799;SDS011;8002;51.196;7.010;2022-07-06T13:37:14;0.70;;;0.70;;
15799;SDS011;8002;51.196;7.010;2022-07-06T13:39:41;0.77;;;0.60;;
15799;SDS011;8002;51.196;7.010;2022-07-06T13:42:07;1.52;;;0.80;;
15799;SDS011;8002;51.196;7.010;2022-07-06T13:44:35;1.25;;;0.82;;
15799;SDS011;8002;51.196;7.010;2022-07-06T13:47:02;1.75;;;0.82;;
15799;SDS011;8002;51.196;7.010;2022-07-06T13:49:28;0.80;;;0.65;;
15799;SDS011;8002;51.196;7.010;2022-07-06T13:51:55;1.10;;;0.60;;
15799;SDS011;8002;51.196;7.010;2022-07-06T13:54:27;1.20;;;0.55;;
15799;SDS011;8002;51.196;7.010;2022-07-06T13:56:53;1.23;;;0.68;;
15799;SDS011;8002;51.196;7.010;2022-07-06T13:59:20;1.45;;;0.70;;
15799;SDS011;8002;51.196;7.010;2022-07-06T14:01:47;2.20;;;1.15;;
15799;SDS011;8002;51.196;7.010;2022-07-06T14:04:14;1.23;;;0.50;;
15799;SDS011;8002;51.196;7.010;2022-07-06T14:06:40;2.70;;;0.90;;
15799;SDS011;8002;51.196;7.010;2022-07-06T14:09:07;1.65;;;0.80;;
15799;SDS011;8002;51.196;7.010;2022-07-06T14:11:33;1.17;;;0.88;;
15799;SDS011;8002;51.196;7.010;2022-07-06T14:13:59;0.88;;;0.77;;
15799;SDS011;8002;51.196;7.010;2022-07-06T14:16:26;1.30;;;1.02;;
15799;SDS011;8002;51.196;7.010;2022-07-06T14:18:54;1.05;;;0.77;;
15799;SDS011;8002;51.196;7.010;2022-07-06T14:21:20;0.88;;;0.75;;
15799;SDS011;8002;51.196;7.010;2022-07-06T14:23:46;1.02;;;0.60;;
15799;SDS011;8002;51.196;7.010;2022-07-06T14:26:14;0.88;;;0.60;;
15799;SDS011;8002;51.196;7.010;2022-07-06T14:28:41;0.68;;;0.60;;
15799;SDS011;8002;51.196;7.010;2022-07-06T14:31:07;0.98;;;0.55;;
15799;SDS011;8002;51.196;7.010;2022-07-06T14:33:34;1.00;;;0.70;;
15799;SDS011;8002;51.196;7.010;2022-07-06T14:36:02;1.30;;;0.50;;
15799;SDS011;8002;51.196;7.010;2022-07-06T14:38:29;0.63;;;0.50;;
15799;SDS011;8002;51.196;7.010;2022-07-06T14:40:55;0.82;;;0.60;;
15799;SDS011;8002;51.196;7.010;2022-07-06T14:43:22;2.17;;;0.80;;
15799;SDS011;8002;51.196;7.010;2022-07-06T14:45:50;1.10;;;0.80;;
15799;SDS011;8002;51.196;7.010;2022-07-06T14:48:16;0.85;;;0.60;;
15799;SDS011;8002;51.196;7.010;2022-07-06T14:50:42;1.00;;;0.60;;
15799;SDS011;8002;51.196;7.010;2022-07-06T14:53:10;3.88;;;1.20;;
15799;SDS011;8002;51.196;7.010;2022-07-06T14:55:36;0.80;;;0.80;;
15799;SDS011;8002;51.196;7.010;2022-07-06T14:58:03;1.25;;;0.70;;
15799;SDS011;8002;51.196;7.010;2022-07-06T15:00:29;1.30;;;0.90;;
15799;SDS011;8002;51.196;7.010;2022-07-06T15:02:56;1.23;;;0.90;;
15799;SDS011;8002;51.196;7.010;2022-07-06T15:05:22;1.15;;;0.57;;
15799;SDS011;8002;51.196;7.010;2022-07-06T15:07:49;1.63;;;0.82;;
15799;SDS011;8002;51.196;7.010;2022-07-06T15:10:16;2.35;;;0.93;;
15799;SDS011;8002;51.196;7.010;2022-07-06T15:12:43;1.95;;;0.80;;